createdAt,value
2022-12-11T00:01:19.847Z,52.46
2022-12-11T00:03:46.594Z,52.11
2022-12-11T00:06:14.280Z,52.18
2022-12-11T00:08:40.763Z,51.94
2022-12-11T00:11:12.763Z,52.11
2022-12-11T00:13:39.441Z,52.51
2022-12-11T00:16:06.165Z,52.18
2022-12-11T00:18:32.568Z,52.20
2022-12-11T00:21:03.319Z,51.92
2022-12-11T00:23:29.832Z,52.62
2022-12-11T00:25:56.557Z,51.93
2022-12-11T00:28:23.828Z,51.38
2022-12-11T00:30:50.552Z,51.66
2022-12-11T00:33:17.443Z,51.56
2022-12-11T00:35:46.312Z,52.24
2022-12-11T00:38:17.465Z,52.52
2022-12-11T00:40:44.349Z,52.24
2022-12-11T00:43:11.373Z,51.83
2022-12-11T00:45:38.735Z,51.49
2022-12-11T00:48:05.407Z,51.70
2022-12-11T00:50:31.787Z,51.34
2022-12-11T00:52:58.250Z,51.62
2022-12-11T00:55:25.496Z,52.28
2022-12-11T00:57:52.732Z,51.94
2022-12-11T01:00:19.482Z,51.79
2022-12-11T01:02:46.419Z,51.39
2022-12-11T01:05:13.180Z,51.41
2022-12-11T01:07:39.669Z,51.10
2022-12-11T01:10:25.105Z,51.28
2022-12-11T01:12:56.638Z,51.43
2022-12-11T01:15:24.320Z,51.24
2022-12-11T01:17:50.909Z,51.59
2022-12-11T01:20:17.976Z,51.99
2022-12-11T01:22:44.414Z,52.21
2022-12-11T01:25:11.338Z,52.02
2022-12-11T01:27:38.589Z,51.63
2022-12-11T01:30:06.080Z,51.37
2022-12-11T01:32:32.663Z,51.28
2022-12-11T01:34:59.418Z,51.21
2022-12-11T01:37:26.110Z,51.62
2022-12-11T01:39:52.618Z,51.45
2022-12-11T01:42:19.881Z,51.36
2022-12-11T01:44:46.401Z,51.62
2022-12-11T01:47:12.852Z,51.53
2022-12-11T01:49:40.351Z,51.38
2022-12-11T01:52:10.969Z,51.31
2022-12-11T01:54:37.339Z,51.66
2022-12-11T01:57:05.937Z,51.42
2022-12-11T01:59:34.260Z,51.80
2022-12-11T02:02:20.841Z,51.80
2022-12-11T02:04:48.251Z,51.58
2022-12-11T02:07:15.234Z,52.08
2022-12-11T02:09:43.110Z,51.89
2022-12-11T02:12:22.232Z,52.07
2022-12-11T02:15:07.203Z,51.88
2022-12-11T02:17:38.895Z,51.76
2022-12-11T02:20:08.463Z,51.93
2022-12-11T02:22:35.030Z,51.79
2022-12-11T02:25:22.315Z,52.35
2022-12-11T02:27:56.624Z,51.76
2022-12-11T02:30:23.821Z,52.09
2022-12-11T02:32:58.022Z,52.20
2022-12-11T02:35:32.673Z,51.45
2022-12-11T02:38:05.343Z,51.48
2022-12-11T02:40:32.894Z,51.72
2022-12-11T02:43:02.664Z,51.66
2022-12-11T02:45:29.635Z,52.42
2022-12-11T02:47:58.576Z,51.71
2022-12-11T02:50:26.821Z,51.51
2022-12-11T02:52:55.977Z,51.97
2022-12-11T02:55:23.263Z,52.68
2022-12-11T02:58:04.904Z,52.32
2022-12-11T03:00:31.805Z,52.33
2022-12-11T03:02:58.565Z,52.25
2022-12-11T03:05:27.075Z,52.67
2022-12-11T03:07:53.701Z,52.94
2022-12-11T03:10:20.317Z,52.53
2022-12-11T03:12:53.224Z,52.75
2022-12-11T03:15:21.987Z,52.69
2022-12-11T03:18:06.625Z,52.76
2022-12-11T03:20:42.150Z,53.24
2022-12-11T03:23:08.401Z,53.16
2022-12-11T03:25:40.317Z,53.63
2022-12-11T03:28:09.662Z,54.48
2022-12-11T03:30:37.349Z,54.27
2022-12-11T03:33:05.495Z,54.33
2022-12-11T03:35:37.944Z,54.72
2022-12-11T03:38:07.501Z,54.89
2022-12-11T03:40:35.644Z,55.13
2022-12-11T03:43:02.351Z,55.39
2022-12-11T03:45:29.997Z,55.28
2022-12-11T03:47:58.109Z,55.43
2022-12-11T03:50:26.491Z,55.43
2022-12-11T03:52:53.690Z,55.52
2022-12-11T03:55:21.260Z,56.25
2022-12-11T03:57:48.451Z,56.45
2022-12-11T04:00:17.198Z,56.74
2022-12-11T04:02:44.556Z,56.93
2022-12-11T04:05:11.695Z,56.93
2022-12-11T04:07:38.336Z,57.53
2022-12-11T04:10:05.278Z,57.22
2022-12-11T04:12:31.628Z,56.78
2022-12-11T04:15:04.143Z,56.92
2022-12-11T04:17:53.350Z,56.56
2022-12-11T04:20:39.041Z,55.79
2022-12-11T04:23:36.892Z,56.40
2022-12-11T04:26:23.488Z,56.45
2022-12-11T04:28:50.200Z,57.13
2022-12-11T04:31:18.550Z,57.27
2022-12-11T04:33:45.009Z,56.41
2022-12-11T04:36:12.030Z,56.74
2022-12-11T04:38:38.697Z,56.50
2022-12-11T04:41:06.275Z,56.98
2022-12-11T04:43:33.057Z,57.24
2022-12-11T04:46:09.662Z,57.26
2022-12-11T04:48:36.887Z,57.02
2022-12-11T04:51:03.281Z,56.46
2022-12-11T04:53:29.776Z,56.97
2022-12-11T04:55:56.196Z,56.92
2022-12-11T04:58:23.100Z,57.32
2022-12-11T05:00:49.476Z,57.59
2022-12-11T05:03:15.982Z,57.09
2022-12-11T05:05:47.278Z,57.16
2022-12-11T05:08:13.636Z,57.21
2022-12-11T05:10:40.036Z,57.15
2022-12-11T05:13:06.360Z,57.16
2022-12-11T05:15:32.760Z,57.01
2022-12-11T05:17:59.167Z,56.71
2022-12-11T05:20:25.584Z,56.70
2022-12-11T05:22:51.965Z,56.93
2022-12-11T05:25:18.292Z,57.74
2022-12-11T05:27:44.678Z,57.80
2022-12-11T05:30:11.208Z,57.70
2022-12-11T05:32:37.576Z,57.28
2022-12-11T05:35:04.066Z,57.20
2022-12-11T05:37:30.412Z,57.36
2022-12-11T05:39:56.767Z,57.24
2022-12-11T05:42:28.624Z,56.56
2022-12-11T05:44:55.403Z,56.71
2022-12-11T05:47:21.763Z,56.16
2022-12-11T05:49:48.177Z,56.33
2022-12-11T05:52:16.572Z,56.94
2022-12-11T05:54:43.398Z,57.10
2022-12-11T05:57:09.970Z,57.21
2022-12-11T05:59:36.308Z,56.87
2022-12-11T06:02:02.825Z,57.85
2022-12-11T06:04:29.243Z,58.14
2022-12-11T06:06:55.676Z,58.11
2022-12-11T06:09:22.021Z,57.66
2022-12-11T06:11:48.423Z,56.89
2022-12-11T06:14:14.958Z,56.95
2022-12-11T06:16:41.689Z,57.08
2022-12-11T06:19:12.838Z,57.78
2022-12-11T06:21:39.279Z,57.85
2022-12-11T06:24:06.848Z,58.35
2022-12-11T06:26:33.462Z,57.97
2022-12-11T06:28:59.963Z,57.61
2022-12-11T06:31:26.840Z,57.53
2022-12-11T06:33:53.429Z,56.92
2022-12-11T06:36:22.018Z,57.46
2022-12-11T06:38:51.481Z,57.59
2022-12-11T06:41:17.995Z,57.81
2022-12-11T06:43:44.582Z,57.28
2022-12-11T06:46:12.099Z,57.37
2022-12-11T06:48:38.507Z,57.26
2022-12-11T06:51:08.892Z,57.03
2022-12-11T06:53:35.604Z,56.82
2022-12-11T06:56:05.945Z,57.28
2022-12-11T06:58:33.964Z,57.26
2022-12-11T07:01:00.714Z,56.88
2022-12-11T07:03:27.578Z,56.82
2022-12-11T07:05:53.883Z,57.26
2022-12-11T07:08:20.736Z,57.24
2022-12-11T07:10:47.396Z,56.41
2022-12-11T07:13:14.075Z,56.60
2022-12-11T07:15:40.723Z,57.13
2022-12-11T07:18:10.725Z,57.74
2022-12-11T07:20:37.439Z,57.85
2022-12-11T07:23:03.971Z,57.61
2022-12-11T07:25:30.524Z,57.28
2022-12-11T07:27:57.661Z,57.39
2022-12-11T07:30:24.513Z,57.29
2022-12-11T07:32:51.032Z,56.96
2022-12-11T07:35:17.498Z,57.36
2022-12-11T07:37:45.860Z,57.05
2022-12-11T07:40:14.107Z,57.21
2022-12-11T07:42:45.979Z,57.18
2022-12-11T07:45:13.204Z,57.46
2022-12-11T07:47:40.700Z,57.56
2022-12-11T07:50:07.651Z,57.38
2022-12-11T07:52:34.104Z,57.49
2022-12-11T07:55:02.779Z,57.12
2022-12-11T07:57:29.394Z,57.21
2022-12-11T07:59:55.959Z,57.52
2022-12-11T08:02:22.649Z,57.76
2022-12-11T08:04:50.342Z,57.80
2022-12-11T08:07:17.008Z,57.33
2022-12-11T08:09:43.606Z,57.18
2022-12-11T08:12:10.108Z,56.69
2022-12-11T08:14:37.186Z,56.65
2022-12-11T08:17:04.084Z,56.52
2022-12-11T08:19:32.081Z,56.85
2022-12-11T08:22:00.249Z,57.07
2022-12-11T08:24:27.573Z,57.28
2022-12-11T08:26:53.946Z,56.75
2022-12-11T08:29:22.142Z,56.86
2022-12-11T08:31:48.990Z,56.76
2022-12-11T08:34:15.876Z,56.50
2022-12-11T08:36:42.590Z,57.58
2022-12-11T08:39:10.100Z,57.53
2022-12-11T08:41:37.908Z,57.62
2022-12-11T08:44:06.051Z,56.83
2022-12-11T08:46:35.885Z,57.27
2022-12-11T08:49:02.689Z,57.04
2022-12-11T08:51:29.940Z,57.08
2022-12-11T08:53:57.548Z,57.98
2022-12-11T08:56:24.282Z,57.69
2022-12-11T08:58:52.830Z,57.86
2022-12-11T09:01:21.680Z,57.44
2022-12-11T09:03:49.020Z,57.49
2022-12-11T09:06:17.059Z,56.51
2022-12-11T09:08:50.354Z,55.99
2022-12-11T09:11:21.335Z,56.35
2022-12-11T09:13:48.070Z,56.62
2022-12-11T09:16:16.962Z,56.61
2022-12-11T09:18:46.889Z,56.59
2022-12-11T09:21:14.560Z,56.97
2022-12-11T09:23:42.039Z,56.51
2022-12-11T09:26:11.674Z,56.46
2022-12-11T09:28:44.444Z,56.14
2022-12-11T09:31:20.773Z,56.97
2022-12-11T09:33:49.637Z,57.04
2022-12-11T09:36:16.242Z,57.43
2022-12-11T09:38:45.710Z,57.04
2022-12-11T09:41:21.919Z,56.15
2022-12-11T09:43:48.849Z,56.02
2022-12-11T09:46:16.540Z,56.01
2022-12-11T09:48:47.150Z,55.82
2022-12-11T09:51:27.250Z,56.13
2022-12-11T09:53:58.141Z,56.12
2022-12-11T09:56:33.074Z,56.20
2022-12-11T09:59:03.477Z,55.73
2022-12-11T10:01:30.055Z,55.15
2022-12-11T10:04:10.483Z,55.75
2022-12-11T10:06:55.438Z,55.62
2022-12-11T10:09:21.751Z,55.33
2022-12-11T10:11:57.225Z,55.08
2022-12-11T10:14:43.627Z,54.59
2022-12-11T10:17:12.535Z,53.93
2022-12-11T10:19:40.497Z,53.63
2022-12-11T10:22:13.709Z,53.03
2022-12-11T10:25:10.072Z,53.26
2022-12-11T10:27:31.458Z,53.16
2022-12-11T10:30:18.831Z,53.22
2022-12-11T10:33:04.140Z,53.63
2022-12-11T10:35:30.445Z,53.57
2022-12-11T10:38:02.054Z,53.43
2022-12-11T10:40:29.216Z,54.07
2022-12-11T10:42:55.792Z,55.12
2022-12-11T10:45:23.283Z,55.48
2022-12-11T10:47:50.557Z,54.96
2022-12-11T10:50:24.984Z,54.82
2022-12-11T10:52:52.491Z,54.46
2022-12-11T10:55:27.544Z,54.72
2022-12-11T10:58:01.411Z,54.97
2022-12-11T11:00:38.946Z,54.60
2022-12-11T11:03:07.822Z,53.10
2022-12-11T11:05:37.153Z,52.91
2022-12-11T11:08:14.858Z,52.50
2022-12-11T11:10:52.105Z,51.82
2022-12-11T11:13:21.069Z,51.37
2022-12-11T11:15:48.070Z,51.30
2022-12-11T11:18:25.406Z,51.57
2022-12-11T11:20:52.865Z,51.34
2022-12-11T11:23:21.647Z,50.72
2022-12-11T11:26:03.165Z,50.94
2022-12-11T11:28:30.996Z,50.81
2022-12-11T11:31:08.285Z,50.84
2022-12-11T11:33:36.023Z,51.29
2022-12-11T11:36:05.171Z,50.72
2022-12-11T11:38:44.007Z,50.10
2022-12-11T11:41:21.874Z,49.80
2022-12-11T11:43:48.325Z,50.81
2022-12-11T11:46:21.592Z,50.45
2022-12-11T11:48:57.597Z,50.51
2022-12-11T11:51:30.842Z,50.19
2022-12-11T11:53:59.092Z,49.68
2022-12-11T11:56:25.848Z,49.23
2022-12-11T11:58:57.494Z,48.90
2022-12-11T12:01:24.383Z,48.50
2022-12-11T12:03:51.506Z,48.08
2022-12-11T12:06:21.858Z,48.11
2022-12-11T12:08:55.069Z,47.91
2022-12-11T12:11:34.148Z,47.51
2022-12-11T12:14:00.956Z,47.66
2022-12-11T12:16:53.382Z,47.69
2022-12-11T12:19:39.447Z,47.44
2022-12-11T12:22:22.253Z,47.38
2022-12-11T12:24:55.094Z,47.63
2022-12-11T12:30:18.781Z,47.63
2022-12-11T12:33:05.466Z,47.84
2022-12-11T12:35:32.126Z,48.00
2022-12-11T12:38:02.031Z,48.41
2022-12-11T12:41:00.579Z,49.51
2022-12-11T12:43:46.051Z,49.10
2022-12-11T12:46:34.323Z,49.38
2022-12-11T12:49:01.606Z,48.82
2022-12-11T12:51:29.191Z,48.47
2022-12-11T12:53:57.553Z,48.77
2022-12-11T12:56:24.891Z,48.45
2022-12-11T12:58:51.635Z,47.79
2022-12-11T13:01:25.746Z,47.49
2022-12-11T13:03:59.339Z,48.09
2022-12-11T13:06:29.449Z,47.86
2022-12-11T13:08:57.584Z,47.71
2022-12-11T13:11:34.482Z,47.82
2022-12-11T13:14:07.048Z,47.75
2022-12-11T13:16:44.683Z,47.95
2022-12-11T13:19:23.549Z,48.69
2022-12-11T13:22:00.175Z,49.02
2022-12-11T13:24:28.004Z,49.06
2022-12-11T13:26:55.235Z,49.50
2022-12-11T13:29:29.610Z,49.38
2022-12-11T13:32:05.438Z,49.57
2022-12-11T13:34:33.711Z,49.60
2022-12-11T13:37:02.851Z,49.84
2022-12-11T13:39:31.021Z,49.42
2022-12-11T13:42:06.200Z,49.86
2022-12-11T13:44:42.712Z,50.21
2022-12-11T13:47:13.857Z,50.22
2022-12-11T13:49:42.279Z,50.81
2022-12-11T13:52:17.366Z,50.42
2022-12-11T13:54:48.087Z,49.61
2022-12-11T13:57:21.199Z,49.51
2022-12-11T13:59:49.658Z,49.88
2022-12-11T14:02:21.881Z,50.16
2022-12-11T14:04:50.266Z,50.54
2022-12-11T14:07:35.407Z,50.12
2022-12-11T14:10:05.790Z,49.46
2022-12-11T14:12:52.792Z,49.12
2022-12-11T14:15:19.679Z,49.39
2022-12-11T14:17:51.491Z,49.17
2022-12-11T14:20:32.902Z,49.00
2022-12-11T14:23:10.674Z,49.45
2022-12-11T14:25:37.281Z,49.47
2022-12-11T14:28:04.458Z,49.70
2022-12-11T14:30:34.013Z,50.18
2022-12-11T14:33:07.912Z,51.31
2022-12-11T14:35:39.834Z,52.71
2022-12-11T14:38:18.016Z,54.34
2022-12-11T14:40:47.026Z,54.81
2022-12-11T14:43:28.723Z,54.80
2022-12-11T14:45:59.465Z,54.35
2022-12-11T14:48:33.177Z,54.35
2022-12-11T14:51:02.028Z,52.82
2022-12-11T14:53:41.208Z,51.70
2022-12-11T14:56:11.722Z,51.08
2022-12-11T14:58:43.703Z,50.19
2022-12-11T15:01:31.011Z,50.34
2022-12-11T15:04:04.401Z,50.94
2022-12-11T15:06:33.620Z,50.02
2022-12-11T15:09:16.491Z,50.46
2022-12-11T15:11:43.446Z,50.51
2022-12-11T15:14:11.873Z,50.48
2022-12-11T15:16:42.450Z,50.31
2022-12-11T15:19:18.414Z,49.93
2022-12-11T15:21:45.542Z,49.94
2022-12-11T15:24:22.794Z,49.63
2022-12-11T15:26:50.065Z,49.86
2022-12-11T15:29:38.998Z,49.89
2022-12-11T15:32:09.426Z,49.72
2022-12-11T15:34:42.931Z,49.82
2022-12-11T15:37:30.090Z,49.81
2022-12-11T15:39:58.048Z,49.88
2022-12-11T15:42:28.235Z,49.95
2022-12-11T15:44:56.067Z,50.21
2022-12-11T15:47:24.827Z,50.55
2022-12-11T15:49:54.509Z,50.78
2022-12-11T15:52:21.441Z,50.77
2022-12-11T15:54:47.942Z,50.66
2022-12-11T15:57:16.792Z,50.60
2022-12-11T15:59:44.363Z,50.04
2022-12-11T16:02:14.501Z,50.13
2022-12-11T16:04:41.483Z,50.33
2022-12-11T16:07:25.313Z,50.46
2022-12-11T16:09:52.412Z,50.55
2022-12-11T16:12:19.282Z,49.95
2022-12-11T16:14:46.442Z,49.85
2022-12-11T16:17:14.895Z,49.66
2022-12-11T16:19:42.113Z,49.66
2022-12-11T16:22:10.072Z,50.32
2022-12-11T16:24:37.315Z,50.84
2022-12-11T16:27:06.197Z,51.56
2022-12-11T16:29:36.387Z,51.52
2022-12-11T16:32:04.524Z,51.98
2022-12-11T16:34:30.929Z,52.09
2022-12-11T16:36:59.432Z,52.51
2022-12-11T16:39:25.983Z,52.55
2022-12-11T16:41:52.890Z,52.43
2022-12-11T16:44:21.179Z,52.22
2022-12-11T16:46:47.986Z,52.40
2022-12-11T16:49:14.955Z,51.75
2022-12-11T16:51:41.964Z,51.60
2022-12-11T16:54:09.090Z,50.95
2022-12-11T16:56:36.002Z,50.60
2022-12-11T16:59:02.940Z,51.08
2022-12-11T17:01:30.376Z,52.00
2022-12-11T17:03:57.296Z,51.65
2022-12-11T17:06:26.264Z,52.18
2022-12-11T17:08:53.444Z,52.64
2022-12-11T17:11:25.001Z,52.60
2022-12-11T17:13:56.696Z,53.31
2022-12-11T17:16:26.344Z,53.28
2022-12-11T17:18:53.585Z,53.72
2022-12-11T17:21:24.552Z,52.91
2022-12-11T17:23:51.455Z,52.92
2022-12-11T17:26:18.427Z,53.16
2022-12-11T17:28:58.051Z,52.28
2022-12-11T17:31:24.938Z,53.33
2022-12-11T17:33:51.805Z,54.09
2022-12-11T17:36:20.608Z,53.57
2022-12-11T17:38:48.066Z,54.03
2022-12-11T17:41:20.434Z,53.98
2022-12-11T17:43:48.978Z,54.09
2022-12-11T17:46:16.712Z,53.06
2022-12-11T17:48:44.332Z,52.78
2022-12-11T17:51:13.242Z,53.08
2022-12-11T17:53:40.785Z,52.98
2022-12-11T17:56:08.605Z,52.68
2022-12-11T17:58:36.869Z,52.39
2022-12-11T18:01:07.831Z,52.58
2022-12-11T18:03:35.474Z,52.18
2022-12-11T18:06:14.949Z,52.29
2022-12-11T18:08:42.862Z,52.09
2022-12-11T18:11:12.987Z,52.96
2022-12-11T18:13:40.753Z,52.57
2022-12-11T18:16:16.996Z,52.36
2022-12-11T18:18:46.614Z,51.91
2022-12-11T18:21:15.214Z,52.04
2022-12-11T18:23:46.752Z,52.40
2022-12-11T18:26:14.923Z,52.99
2022-12-11T18:28:42.490Z,53.26
2022-12-11T18:31:11.400Z,53.09
2022-12-11T18:33:38.819Z,53.08
2022-12-11T18:36:05.917Z,53.79
2022-12-11T18:38:33.466Z,53.60
2022-12-11T18:41:03.998Z,53.64
2022-12-11T18:43:30.695Z,53.21
2022-12-11T18:45:57.787Z,53.21
2022-12-11T18:48:25.122Z,53.57
2022-12-11T18:50:52.487Z,54.45
2022-12-11T18:53:19.965Z,54.98
2022-12-11T18:55:50.011Z,56.43
2022-12-11T18:58:18.059Z,58.37
2022-12-11T19:00:45.875Z,58.26
2022-12-11T19:03:14.068Z,56.79
2022-12-11T19:05:42.676Z,55.69
2022-12-11T19:08:10.203Z,54.96
2022-12-11T19:10:47.102Z,54.80
2022-12-11T19:13:14.080Z,54.21
2022-12-11T19:15:41.066Z,54.50
2022-12-11T19:18:09.026Z,55.19
2022-12-11T19:21:03.058Z,55.17
2022-12-11T19:23:26.551Z,54.83
2022-12-11T19:25:55.089Z,54.53
2022-12-11T19:28:22.158Z,54.73
2022-12-11T19:30:49.499Z,54.19
2022-12-11T19:33:18.077Z,53.72
2022-12-11T19:35:46.289Z,53.37
2022-12-11T19:38:13.898Z,53.71
2022-12-11T19:40:42.279Z,54.13
2022-12-11T19:43:10.020Z,54.28
2022-12-11T19:45:36.832Z,54.52
2022-12-11T19:48:04.260Z,54.88
2022-12-11T19:50:31.086Z,54.70
2022-12-11T19:52:58.158Z,53.90
2022-12-11T19:55:24.991Z,53.37
2022-12-11T19:57:52.498Z,53.71
2022-12-11T20:00:19.615Z,55.03
2022-12-11T20:02:46.957Z,54.50
2022-12-11T20:05:14.547Z,54.13
2022-12-11T20:07:44.503Z,54.01
2022-12-11T20:10:11.838Z,53.65
2022-12-11T20:12:38.648Z,54.04
2022-12-11T20:15:06.205Z,54.67
2022-12-11T20:17:35.244Z,55.40
2022-12-11T20:20:04.079Z,55.29
2022-12-11T20:22:31.402Z,55.03
2022-12-11T20:24:58.267Z,55.29
2022-12-11T20:27:26.136Z,56.46
2022-12-11T20:29:52.669Z,56.38
2022-12-11T20:32:19.206Z,57.21
2022-12-11T20:34:47.054Z,56.92
2022-12-11T20:37:14.436Z,55.97
2022-12-11T20:39:42.187Z,55.29
2022-12-11T20:42:10.498Z,55.38
2022-12-11T20:44:37.811Z,55.31
2022-12-11T20:47:06.964Z,55.43
2022-12-11T20:49:34.319Z,54.84
2022-12-11T20:52:02.310Z,55.26
2022-12-11T20:54:29.604Z,55.03
2022-12-11T20:56:56.986Z,55.43
2022-12-11T20:59:25.122Z,56.10
2022-12-11T21:01:52.661Z,56.35
2022-12-11T21:04:21.890Z,56.84
2022-12-11T21:06:55.959Z,55.97
2022-12-11T21:09:24.638Z,56.32
2022-12-11T21:11:52.974Z,56.55
2022-12-11T21:14:20.839Z,55.99
2022-12-11T21:16:48.084Z,55.35
2022-12-11T21:19:20.399Z,55.56
2022-12-11T21:21:50.021Z,55.38
2022-12-11T21:24:28.669Z,55.98
2022-12-11T21:26:59.616Z,56.52
2022-12-11T21:29:26.911Z,56.73
2022-12-11T21:31:53.865Z,55.66
2022-12-11T21:34:25.218Z,55.22
2022-12-11T21:36:57.299Z,55.47
2022-12-11T21:39:25.822Z,55.75
2022-12-11T21:41:52.808Z,54.92
2022-12-11T21:47:07.880Z,54.06
2022-12-11T21:49:34.693Z,54.41
2022-12-11T21:52:01.160Z,54.44
2022-12-11T21:54:28.998Z,54.56
2022-12-11T21:56:55.714Z,54.78
2022-12-11T21:59:22.308Z,54.74
2022-12-11T22:01:49.141Z,55.63
2022-12-11T22:04:16.148Z,56.00
2022-12-11T22:06:49.920Z,56.83
2022-12-11T22:09:19.383Z,57.12
2022-12-11T22:11:46.530Z,56.93
2022-12-11T22:14:15.964Z,56.55
2022-12-11T22:16:42.705Z,56.15
2022-12-11T22:19:09.658Z,55.76
2022-12-11T22:21:36.241Z,55.38
2022-12-11T22:24:05.317Z,54.91
2022-12-11T22:26:33.973Z,54.12
2022-12-11T22:29:01.013Z,54.66
2022-12-11T22:31:27.562Z,54.43
2022-12-11T22:33:54.870Z,54.23
2022-12-11T22:36:22.424Z,54.68
2022-12-11T22:38:49.032Z,55.01
2022-12-11T22:41:22.378Z,55.20
2022-12-11T22:43:49.422Z,55.45
2022-12-11T22:46:17.203Z,56.05
2022-12-11T22:48:44.481Z,55.51
2022-12-11T22:51:11.402Z,55.37
2022-12-11T22:53:37.987Z,54.62
2022-12-11T22:56:08.077Z,54.26
2022-12-11T22:58:35.002Z,54.42
2022-12-11T23:01:03.383Z,55.04
2022-12-11T23:03:31.261Z,54.78
2022-12-11T23:06:04.845Z,54.09
2022-12-11T23:08:32.237Z,54.17
2022-12-11T23:10:58.973Z,53.33
2022-12-11T23:13:26.611Z,53.58
2022-12-11T23:15:53.932Z,53.34
2022-12-11T23:18:20.787Z,53.47
2022-12-11T23:20:48.628Z,53.14
2022-12-11T23:23:16.154Z,53.23
2022-12-11T23:25:42.598Z,53.56
2022-12-11T23:28:09.727Z,53.78
2022-12-11T23:30:36.200Z,53.86
2022-12-11T23:33:02.685Z,53.51
2022-12-11T23:35:30.628Z,53.15
2022-12-11T23:37:57.705Z,54.00
2022-12-11T23:40:24.284Z,53.83
2022-12-11T23:42:54.700Z,53.96
2022-12-11T23:45:21.527Z,54.21
2022-12-11T23:47:48.098Z,54.48
2022-12-11T23:50:14.615Z,53.96
2022-12-11T23:52:41.118Z,53.50
2022-12-11T23:55:08.494Z,54.01
2022-12-11T23:57:35.091Z,54.10
